sensor_id;sensor_type;location;lat;lon;timestamp;P1;durP1;ratioP1;P2;durP2;ratioP2
48241;SDS011;34041;51.812;4.622;2023-07-31T00:00:54;25.43;;;6.03;;
48241;SDS011;34041;51.812;4.622;2023-07-31T00:03:54;20.03;;;6.70;;
48241;SDS011;34041;51.812;4.622;2023-07-31T00:06:54;21.17;;;6.63;;
48241;SDS011;34041;51.812;4.622;2023-07-31T00:09:54;17.63;;;5.93;;
48241;SDS011;34041;51.812;4.622;2023-07-31T00:12:56;16.25;;;6.65;;
48241;SDS011;34041;51.812;4.622;2023-07-31T00:15:56;17.73;;;7.07;;
48241;SDS011;34041;51.812;4.622;2023-07-31T00:18:56;20.17;;;6.80;;
48241;SDS011;34041;51.812;4.622;2023-07-31T00:21:57;14.40;;;7.15;;
48241;SDS011;34041;51.812;4.622;2023-07-31T00:24:57;17.07;;;6.53;;
48241;SDS011;34041;51.812;4.622;2023-07-31T00:27:57;20.05;;;6.03;;
48241;SDS011;34041;51.812;4.622;2023-07-31T00:30:58;21.23;;;6.87;;
48241;SDS011;34041;51.812;4.622;2023-07-31T00:33:58;19.03;;;7.30;;
48241;SDS011;34041;51.812;4.622;2023-07-31T00:36:58;17.30;;;7.40;;
48241;SDS011;34041;51.812;4.622;2023-07-31T00:39:58;17.13;;;7.03;;
48241;SDS011;34041;51.812;4.622;2023-07-31T00:42:58;23.17;;;7.43;;
48241;SDS011;34041;51.812;4.622;2023-07-31T00:45:59;19.00;;;6.80;;
48241;SDS011;34041;51.812;4.622;2023-07-31T00:48:59;19.85;;;8.25;;
48241;SDS011;34041;51.812;4.622;2023-07-31T00:51:59;19.05;;;6.68;;
48241;SDS011;34041;51.812;4.622;2023-07-31T00:55:00;19.23;;;7.32;;
48241;SDS011;34041;51.812;4.622;2023-07-31T00:58:01;18.70;;;6.85;;
48241;SDS011;34041;51.812;4.622;2023-07-31T01:01:01;17.57;;;7.20;;
48241;SDS011;34041;51.812;4.622;2023-07-31T01:04:01;22.55;;;10.00;;
48241;SDS011;34041;51.812;4.622;2023-07-31T01:07:14;15.15;;;7.28;;
48241;SDS011;34041;51.812;4.622;2023-07-31T01:10:20;14.27;;;6.43;;
48241;SDS011;34041;51.812;4.622;2023-07-31T01:13:21;19.40;;;7.53;;
48241;SDS011;34041;51.812;4.622;2023-07-31T01:16:21;18.02;;;6.30;;
48241;SDS011;34041;51.812;4.622;2023-07-31T01:19:22;15.52;;;5.90;;
48241;SDS011;34041;51.812;4.622;2023-07-31T01:29:01;19.50;;;7.13;;
48241;SDS011;34041;51.812;4.622;2023-07-31T01:32:02;15.93;;;6.78;;
48241;SDS011;34041;51.812;4.622;2023-07-31T01:35:03;19.00;;;7.95;;
48241;SDS011;34041;51.812;4.622;2023-07-31T01:38:04;13.35;;;5.63;;
48241;SDS011;34041;51.812;4.622;2023-07-31T01:41:04;21.02;;;7.18;;
48241;SDS011;34041;51.812;4.622;2023-07-31T01:44:05;18.97;;;7.27;;
48241;SDS011;34041;51.812;4.622;2023-07-31T01:47:05;16.83;;;6.13;;
48241;SDS011;34041;51.812;4.622;2023-07-31T01:50:05;17.83;;;5.50;;
48241;SDS011;34041;51.812;4.622;2023-07-31T01:53:06;13.63;;;6.85;;
48241;SDS011;34041;51.812;4.622;2023-07-31T01:56:06;15.20;;;6.10;;
48241;SDS011;34041;51.812;4.622;2023-07-31T01:59:06;19.33;;;7.17;;
48241;SDS011;34041;51.812;4.622;2023-07-31T02:02:06;19.90;;;7.50;;
48241;SDS011;34041;51.812;4.622;2023-07-31T02:05:07;20.73;;;7.57;;
48241;SDS011;34041;51.812;4.622;2023-07-31T02:08:07;13.27;;;6.88;;
48241;SDS011;34041;51.812;4.622;2023-07-31T02:11:07;22.33;;;7.95;;
48241;SDS011;34041;51.812;4.622;2023-07-31T02:14:07;16.67;;;7.53;;
48241;SDS011;34041;51.812;4.622;2023-07-31T02:17:08;19.95;;;7.22;;
48241;SDS011;34041;51.812;4.622;2023-07-31T02:20:08;20.30;;;8.03;;
48241;SDS011;34041;51.812;4.622;2023-07-31T02:23:08;17.08;;;7.38;;
48241;SDS011;34041;51.812;4.622;2023-07-31T02:26:09;20.77;;;6.68;;
48241;SDS011;34041;51.812;4.622;2023-07-31T02:29:09;14.23;;;7.23;;
48241;SDS011;34041;51.812;4.622;2023-07-31T02:32:09;18.87;;;7.43;;
48241;SDS011;34041;51.812;4.622;2023-07-31T02:35:09;18.15;;;6.57;;
48241;SDS011;34041;51.812;4.622;2023-07-31T02:38:11;19.23;;;7.60;;
48241;SDS011;34041;51.812;4.622;2023-07-31T02:41:11;14.80;;;6.20;;
48241;SDS011;34041;51.812;4.622;2023-07-31T02:44:11;20.83;;;8.13;;
48241;SDS011;34041;51.812;4.622;2023-07-31T02:47:14;16.30;;;6.18;;
48241;SDS011;34041;51.812;4.622;2023-07-31T02:50:14;12.23;;;6.65;;
48241;SDS011;34041;51.812;4.622;2023-07-31T02:53:14;15.90;;;7.07;;
48241;SDS011;34041;51.812;4.622;2023-07-31T02:56:15;19.17;;;7.32;;
48241;SDS011;34041;51.812;4.622;2023-07-31T02:59:15;19.65;;;7.15;;
48241;SDS011;34041;51.812;4.622;2023-07-31T03:02:15;17.88;;;7.60;;
48241;SDS011;34041;51.812;4.622;2023-07-31T03:05:15;17.23;;;6.55;;
48241;SDS011;34041;51.812;4.622;2023-07-31T03:08:16;20.37;;;6.87;;
48241;SDS011;34041;51.812;4.622;2023-07-31T03:11:16;15.87;;;6.13;;
48241;SDS011;34041;51.812;4.622;2023-07-31T03:14:16;15.93;;;7.00;;
48241;SDS011;34041;51.812;4.622;2023-07-31T03:17:16;13.07;;;6.50;;
48241;SDS011;34041;51.812;4.622;2023-07-31T03:20:16;17.67;;;7.30;;
48241;SDS011;34041;51.812;4.622;2023-07-31T03:23:17;16.33;;;6.67;;
48241;SDS011;34041;51.812;4.622;2023-07-31T03:26:17;15.30;;;6.23;;
48241;SDS011;34041;51.812;4.622;2023-07-31T03:29:17;14.67;;;6.00;;
48241;SDS011;34041;51.812;4.622;2023-07-31T03:32:17;14.20;;;6.33;;
48241;SDS011;34041;51.812;4.622;2023-07-31T03:35:18;18.50;;;6.70;;
48241;SDS011;34041;51.812;4.622;2023-07-31T03:38:18;19.60;;;5.73;;
48241;SDS011;34041;51.812;4.622;2023-07-31T03:41:18;17.15;;;6.25;;
48241;SDS011;34041;51.812;4.622;2023-07-31T03:44:19;13.30;;;6.37;;
48241;SDS011;34041;51.812;4.622;2023-07-31T03:47:19;14.30;;;7.67;;
48241;SDS011;34041;51.812;4.622;2023-07-31T03:50:19;11.30;;;6.10;;
48241;SDS011;34041;51.812;4.622;2023-07-31T03:53:19;13.37;;;5.63;;
48241;SDS011;34041;51.812;4.622;2023-07-31T03:56:19;13.48;;;5.28;;
48241;SDS011;34041;51.812;4.622;2023-07-31T03:59:20;13.82;;;5.63;;
48241;SDS011;34041;51.812;4.622;2023-07-31T04:02:20;11.73;;;5.43;;
48241;SDS011;34041;51.812;4.622;2023-07-31T04:05:20;15.63;;;5.65;;
48241;SDS011;34041;51.812;4.622;2023-07-31T04:08:21;9.32;;;5.60;;
48241;SDS011;34041;51.812;4.622;2023-07-31T04:11:21;14.70;;;5.55;;
48241;SDS011;34041;51.812;4.622;2023-07-31T04:14:21;18.30;;;7.70;;
48241;SDS011;34041;51.812;4.622;2023-07-31T04:17:21;21.10;;;7.00;;
48241;SDS011;34041;51.812;4.622;2023-07-31T04:20:22;16.97;;;5.57;;
48241;SDS011;34041;51.812;4.622;2023-07-31T04:23:22;17.92;;;6.47;;
48241;SDS011;34041;51.812;4.622;2023-07-31T04:26:22;13.23;;;6.00;;
48241;SDS011;34041;51.812;4.622;2023-07-31T04:29:22;12.90;;;5.65;;
48241;SDS011;34041;51.812;4.622;2023-07-31T04:32:24;13.48;;;5.93;;
48241;SDS011;34041;51.812;4.622;2023-07-31T04:35:24;17.70;;;5.70;;
48241;SDS011;34041;51.812;4.622;2023-07-31T04:38:24;17.57;;;5.13;;
48241;SDS011;34041;51.812;4.622;2023-07-31T04:41:24;15.03;;;5.93;;
48241;SDS011;34041;51.812;4.622;2023-07-31T04:44:25;10.63;;;5.30;;
48241;SDS011;34041;51.812;4.622;2023-07-31T04:47:25;16.08;;;6.20;;
48241;SDS011;34041;51.812;4.622;2023-07-31T04:50:25;8.80;;;4.50;;
48241;SDS011;34041;51.812;4.622;2023-07-31T04:53:25;9.10;;;4.60;;
48241;SDS011;34041;51.812;4.622;2023-07-31T04:56:26;11.70;;;4.97;;
48241;SDS011;34041;51.812;4.622;2023-07-31T04:59:26;11.63;;;5.90;;
48241;SDS011;34041;51.812;4.622;2023-07-31T05:02:26;10.17;;;5.83;;
48241;SDS011;34041;51.812;4.622;2023-07-31T05:05:26;9.73;;;4.73;;
48241;SDS011;34041;51.812;4.622;2023-07-31T05:08:26;9.83;;;4.30;;
48241;SDS011;34041;51.812;4.622;2023-07-31T05:11:27;6.83;;;3.67;;
48241;SDS011;34041;51.812;4.622;2023-07-31T05:14:27;9.10;;;3.70;;
48241;SDS011;34041;51.812;4.622;2023-07-31T05:17:27;11.33;;;4.40;;
48241;SDS011;34041;51.812;4.622;2023-07-31T05:20:27;11.43;;;4.17;;
48241;SDS011;34041;51.812;4.622;2023-07-31T05:23:28;8.23;;;4.47;;
48241;SDS011;34041;51.812;4.622;2023-07-31T05:26:28;12.05;;;4.32;;
48241;SDS011;34041;51.812;4.622;2023-07-31T05:29:28;9.60;;;4.63;;
48241;SDS011;34041;51.812;4.622;2023-07-31T05:32:28;9.10;;;3.70;;
48241;SDS011;34041;51.812;4.622;2023-07-31T05:35:28;7.73;;;4.00;;
48241;SDS011;34041;51.812;4.622;2023-07-31T05:38:29;7.72;;;3.38;;
48241;SDS011;34041;51.812;4.622;2023-07-31T05:41:30;8.98;;;3.58;;
48241;SDS011;34041;51.812;4.622;2023-07-31T05:44:30;6.78;;;3.58;;
48241;SDS011;34041;51.812;4.622;2023-07-31T05:47:30;6.23;;;3.77;;
48241;SDS011;34041;51.812;4.622;2023-07-31T05:50:30;6.63;;;3.70;;
48241;SDS011;34041;51.812;4.622;2023-07-31T05:53:31;6.67;;;3.47;;
48241;SDS011;34041;51.812;4.622;2023-07-31T05:56:31;7.67;;;3.50;;
48241;SDS011;34041;51.812;4.622;2023-07-31T05:59:33;8.15;;;3.38;;
48241;SDS011;34041;51.812;4.622;2023-07-31T06:02:33;8.57;;;4.00;;
48241;SDS011;34041;51.812;4.622;2023-07-31T06:05:36;6.68;;;3.33;;
48241;SDS011;34041;51.812;4.622;2023-07-31T06:08:36;5.90;;;3.20;;
48241;SDS011;34041;51.812;4.622;2023-07-31T06:11:37;4.55;;;3.15;;
48241;SDS011;34041;51.812;4.622;2023-07-31T06:14:37;7.43;;;3.17;;
48241;SDS011;34041;51.812;4.622;2023-07-31T06:17:37;7.07;;;3.40;;
48241;SDS011;34041;51.812;4.622;2023-07-31T06:20:37;7.53;;;3.20;;
48241;SDS011;34041;51.812;4.622;2023-07-31T06:23:40;6.70;;;2.83;;
48241;SDS011;34041;51.812;4.622;2023-07-31T06:26:40;6.60;;;3.10;;
48241;SDS011;34041;51.812;4.622;2023-07-31T06:29:41;5.60;;;3.53;;
48241;SDS011;34041;51.812;4.622;2023-07-31T06:32:42;6.50;;;3.25;;
48241;SDS011;34041;51.812;4.622;2023-07-31T06:35:42;5.78;;;2.80;;
48241;SDS011;34041;51.812;4.622;2023-07-31T06:38:43;6.20;;;2.83;;
48241;SDS011;34041;51.812;4.622;2023-07-31T06:41:43;4.87;;;2.47;;
48241;SDS011;34041;51.812;4.622;2023-07-31T06:44:43;5.35;;;2.92;;
48241;SDS011;34041;51.812;4.622;2023-07-31T06:47:43;7.07;;;3.07;;
48241;SDS011;34041;51.812;4.622;2023-07-31T06:50:44;4.57;;;2.50;;
48241;SDS011;34041;51.812;4.622;2023-07-31T06:53:44;6.55;;;2.45;;
48241;SDS011;34041;51.812;4.622;2023-07-31T06:56:45;5.22;;;2.55;;
48241;SDS011;34041;51.812;4.622;2023-07-31T06:59:45;4.10;;;2.00;;
48241;SDS011;34041;51.812;4.622;2023-07-31T07:02:45;6.13;;;2.53;;
48241;SDS011;34041;51.812;4.622;2023-07-31T07:05:47;6.72;;;3.28;;
48241;SDS011;34041;51.812;4.622;2023-07-31T07:08:48;6.05;;;2.20;;
48241;SDS011;34041;51.812;4.622;2023-07-31T07:11:48;5.17;;;2.20;;
48241;SDS011;34041;51.812;4.622;2023-07-31T07:14:48;6.82;;;3.00;;
48241;SDS011;34041;51.812;4.622;2023-07-31T07:17:48;5.05;;;2.40;;
48241;SDS011;34041;51.812;4.622;2023-07-31T07:20:52;3.90;;;2.30;;
48241;SDS011;34041;51.812;4.622;2023-07-31T07:23:52;4.72;;;2.20;;
48241;SDS011;34041;51.812;4.622;2023-07-31T07:26:52;3.80;;;1.93;;
48241;SDS011;34041;51.812;4.622;2023-07-31T07:29:52;4.27;;;2.43;;
48241;SDS011;34041;51.812;4.622;2023-07-31T07:32:53;6.45;;;2.30;;
48241;SDS011;34041;51.812;4.622;2023-07-31T07:35:53;4.37;;;2.33;;
48241;SDS011;34041;51.812;4.622;2023-07-31T07:38:53;5.63;;;2.08;;
48241;SDS011;34041;51.812;4.622;2023-07-31T07:41:54;5.90;;;1.90;;
48241;SDS011;34041;51.812;4.622;2023-07-31T07:44:54;3.38;;;2.33;;
48241;SDS011;34041;51.812;4.622;2023-07-31T07:47:54;3.30;;;2.03;;
48241;SDS011;34041;51.812;4.622;2023-07-31T07:50:55;4.20;;;2.20;;
48241;SDS011;34041;51.812;4.622;2023-07-31T07:53:55;2.33;;;1.40;;
48241;SDS011;34041;51.812;4.622;2023-07-31T07:56:56;2.40;;;1.75;;
48241;SDS011;34041;51.812;4.622;2023-07-31T07:59:56;3.13;;;1.37;;
48241;SDS011;34041;51.812;4.622;2023-07-31T08:02:56;3.97;;;2.30;;
48241;SDS011;34041;51.812;4.622;2023-07-31T08:05:58;3.53;;;1.63;;
48241;SDS011;34041;51.812;4.622;2023-07-31T08:08:59;3.17;;;1.30;;
48241;SDS011;34041;51.812;4.622;2023-07-31T08:11:59;3.72;;;1.52;;
48241;SDS011;34041;51.812;4.622;2023-07-31T08:15:02;2.95;;;1.58;;
48241;SDS011;34041;51.812;4.622;2023-07-31T08:18:03;4.88;;;1.88;;
48241;SDS011;34041;51.812;4.622;2023-07-31T08:21:03;3.28;;;1.95;;
48241;SDS011;34041;51.812;4.622;2023-07-31T08:24:03;4.50;;;1.70;;
48241;SDS011;34041;51.812;4.622;2023-07-31T08:27:05;2.60;;;1.50;;
48241;SDS011;34041;51.812;4.622;2023-07-31T08:30:05;3.38;;;1.73;;
48241;SDS011;34041;51.812;4.622;2023-07-31T08:33:06;2.72;;;1.70;;
48241;SDS011;34041;51.812;4.622;2023-07-31T08:36:06;2.90;;;1.63;;
48241;SDS011;34041;51.812;4.622;2023-07-31T08:39:06;3.83;;;1.40;;
48241;SDS011;34041;51.812;4.622;2023-07-31T08:42:10;2.77;;;1.70;;
48241;SDS011;34041;51.812;4.622;2023-07-31T08:45:11;3.03;;;1.50;;
48241;SDS011;34041;51.812;4.622;2023-07-31T08:48:13;4.13;;;1.80;;
48241;SDS011;34041;51.812;4.622;2023-07-31T08:51:14;3.70;;;1.85;;
48241;SDS011;34041;51.812;4.622;2023-07-31T08:54:15;2.83;;;1.58;;
48241;SDS011;34041;51.812;4.622;2023-07-31T08:57:15;2.70;;;1.63;;
48241;SDS011;34041;51.812;4.622;2023-07-31T09:00:16;2.53;;;1.40;;
48241;SDS011;34041;51.812;4.622;2023-07-31T09:03:17;2.90;;;1.88;;
48241;SDS011;34041;51.812;4.622;2023-07-31T09:06:18;4.90;;;1.85;;
48241;SDS011;34041;51.812;4.622;2023-07-31T09:09:19;2.75;;;1.48;;
48241;SDS011;34041;51.812;4.622;2023-07-31T09:12:20;3.90;;;1.98;;
48241;SDS011;34041;51.812;4.622;2023-07-31T09:15:20;4.13;;;1.92;;
48241;SDS011;34041;51.812;4.622;2023-07-31T09:18:21;5.10;;;2.00;;
48241;SDS011;34041;51.812;4.622;2023-07-31T09:21:23;3.03;;;1.98;;
48241;SDS011;34041;51.812;4.622;2023-07-31T09:24:31;2.50;;;1.77;;
48241;SDS011;34041;51.812;4.622;2023-07-31T09:27:41;2.92;;;1.70;;
48241;SDS011;34041;51.812;4.622;2023-07-31T09:30:51;3.47;;;1.77;;
48241;SDS011;34041;51.812;4.622;2023-07-31T09:33:54;2.83;;;1.73;;
48241;SDS011;34041;51.812;4.622;2023-07-31T09:36:57;3.13;;;2.15;;
48241;SDS011;34041;51.812;4.622;2023-07-31T09:39:58;3.30;;;1.90;;
48241;SDS011;34041;51.812;4.622;2023-07-31T09:42:59;3.88;;;2.50;;
48241;SDS011;34041;51.812;4.622;2023-07-31T09:46:00;3.53;;;1.90;;
48241;SDS011;34041;51.812;4.622;2023-07-31T09:49:07;4.60;;;2.13;;
48241;SDS011;34041;51.812;4.622;2023-07-31T09:52:11;3.17;;;2.03;;
48241;SDS011;34041;51.812;4.622;2023-07-31T09:58:12;3.05;;;1.70;;
48241;SDS011;34041;51.812;4.622;2023-07-31T10:01:13;3.15;;;2.00;;
48241;SDS011;34041;51.812;4.622;2023-07-31T10:04:13;3.55;;;1.92;;
48241;SDS011;34041;51.812;4.622;2023-07-31T10:07:14;2.88;;;1.80;;
48241;SDS011;34041;51.812;4.622;2023-07-31T10:10:16;3.97;;;2.10;;
48241;SDS011;34041;51.812;4.622;2023-07-31T10:13:16;3.40;;;2.13;;
48241;SDS011;34041;51.812;4.622;2023-07-31T10:16:17;3.65;;;1.88;;
48241;SDS011;34041;51.812;4.622;2023-07-31T10:19:18;3.50;;;2.22;;
48241;SDS011;34041;51.812;4.622;2023-07-31T10:22:19;2.90;;;1.95;;
48241;SDS011;34041;51.812;4.622;2023-07-31T10:25:19;2.75;;;1.90;;
48241;SDS011;34041;51.812;4.622;2023-07-31T10:28:20;2.83;;;2.05;;
48241;SDS011;34041;51.812;4.622;2023-07-31T10:31:21;3.92;;;1.88;;
48241;SDS011;34041;51.812;4.622;2023-07-31T10:34:21;3.30;;;1.42;;
48241;SDS011;34041;51.812;4.622;2023-07-31T10:40:26;2.92;;;1.88;;
48241;SDS011;34041;51.812;4.622;2023-07-31T10:43:26;2.50;;;1.90;;
48241;SDS011;34041;51.812;4.622;2023-07-31T10:46:27;2.97;;;1.85;;
48241;SDS011;34041;51.812;4.622;2023-07-31T10:49:28;3.80;;;2.03;;
48241;SDS011;34041;51.812;4.622;2023-07-31T10:52:31;2.95;;;2.08;;
48241;SDS011;34041;51.812;4.622;2023-07-31T10:55:41;2.95;;;2.30;;
48241;SDS011;34041;51.812;4.622;2023-07-31T10:58:43;4.22;;;1.95;;
48241;SDS011;34041;51.812;4.622;2023-07-31T11:01:50;2.70;;;1.73;;
48241;SDS011;34041;51.812;4.622;2023-07-31T11:05:09;3.05;;;1.92;;
48241;SDS011;34041;51.812;4.622;2023-07-31T11:08:20;4.10;;;1.85;;
48241;SDS011;34041;51.812;4.622;2023-07-31T11:11:22;3.50;;;1.77;;
48241;SDS011;34041;51.812;4.622;2023-07-31T11:14:22;3.13;;;2.00;;
48241;SDS011;34041;51.812;4.622;2023-07-31T11:17:24;2.97;;;2.03;;
48241;SDS011;34041;51.812;4.622;2023-07-31T11:20:24;2.83;;;1.80;;
48241;SDS011;34041;51.812;4.622;2023-07-31T11:23:25;3.30;;;1.95;;
48241;SDS011;34041;51.812;4.622;2023-07-31T11:26:25;3.10;;;1.90;;
48241;SDS011;34041;51.812;4.622;2023-07-31T11:29:27;2.47;;;1.85;;
48241;SDS011;34041;51.812;4.622;2023-07-31T11:32:27;2.80;;;1.85;;
48241;SDS011;34041;51.812;4.622;2023-07-31T11:35:27;2.83;;;1.63;;
48241;SDS011;34041;51.812;4.622;2023-07-31T11:38:31;3.47;;;1.80;;
48241;SDS011;34041;51.812;4.622;2023-07-31T11:41:32;2.28;;;1.55;;
48241;SDS011;34041;51.812;4.622;2023-07-31T11:44:39;2.75;;;1.75;;
48241;SDS011;34041;51.812;4.622;2023-07-31T11:47:41;3.30;;;1.92;;
48241;SDS011;34041;51.812;4.622;2023-07-31T11:50:41;3.07;;;1.80;;
48241;SDS011;34041;51.812;4.622;2023-07-31T11:53:43;2.83;;;1.30;;
48241;SDS011;34041;51.812;4.622;2023-07-31T11:56:43;3.30;;;1.90;;
48241;SDS011;34041;51.812;4.622;2023-07-31T11:59:43;3.08;;;1.70;;
48241;SDS011;34041;51.812;4.622;2023-07-31T12:02:44;2.47;;;1.55;;
48241;SDS011;34041;51.812;4.622;2023-07-31T12:05:44;2.90;;;1.90;;
48241;SDS011;34041;51.812;4.622;2023-07-31T12:08:47;3.75;;;1.73;;
48241;SDS011;34041;51.812;4.622;2023-07-31T12:11:47;2.28;;;1.48;;
48241;SDS011;34041;51.812;4.622;2023-07-31T12:14:47;2.63;;;1.63;;
48241;SDS011;34041;51.812;4.622;2023-07-31T12:17:48;3.45;;;1.85;;
48241;SDS011;34041;51.812;4.622;2023-07-31T12:20:49;3.20;;;1.77;;
48241;SDS011;34041;51.812;4.622;2023-07-31T12:23:51;3.83;;;1.67;;
48241;SDS011;34041;51.812;4.622;2023-07-31T12:26:51;3.25;;;1.70;;
48241;SDS011;34041;51.812;4.622;2023-07-31T12:29:52;3.15;;;1.80;;
48241;SDS011;34041;51.812;4.622;2023-07-31T12:32:52;2.80;;;1.80;;
48241;SDS011;34041;51.812;4.622;2023-07-31T12:35:53;2.13;;;1.60;;
48241;SDS011;34041;51.812;4.622;2023-07-31T12:38:53;3.33;;;1.50;;
48241;SDS011;34041;51.812;4.622;2023-07-31T12:41:56;3.17;;;1.75;;
48241;SDS011;34041;51.812;4.622;2023-07-31T12:44:56;3.43;;;1.73;;
48241;SDS011;34041;51.812;4.622;2023-07-31T12:47:56;3.30;;;2.27;;
48241;SDS011;34041;51.812;4.622;2023-07-31T12:50:57;2.45;;;1.70;;
48241;SDS011;34041;51.812;4.622;2023-07-31T12:53:57;3.60;;;1.40;;
48241;SDS011;34041;51.812;4.622;2023-07-31T12:56:57;2.33;;;1.40;;
48241;SDS011;34041;51.812;4.622;2023-07-31T12:59:58;2.63;;;1.80;;
48241;SDS011;34041;51.812;4.622;2023-07-31T13:02:58;2.97;;;1.70;;
48241;SDS011;34041;51.812;4.622;2023-07-31T13:05:59;2.65;;;1.60;;
48241;SDS011;34041;51.812;4.622;2023-07-31T13:08:59;2.37;;;1.77;;
48241;SDS011;34041;51.812;4.622;2023-07-31T13:11:59;3.60;;;1.80;;
48241;SDS011;34041;51.812;4.622;2023-07-31T13:14:59;3.03;;;1.70;;
48241;SDS011;34041;51.812;4.622;2023-07-31T13:18:00;2.78;;;1.73;;
48241;SDS011;34041;51.812;4.622;2023-07-31T13:21:00;2.90;;;1.70;;
48241;SDS011;34041;51.812;4.622;2023-07-31T13:24:00;3.50;;;2.07;;
48241;SDS011;34041;51.812;4.622;2023-07-31T13:27:00;2.77;;;1.77;;
48241;SDS011;34041;51.812;4.622;2023-07-31T13:30:01;3.28;;;2.13;;
48241;SDS011;34041;51.812;4.622;2023-07-31T13:33:01;2.63;;;1.65;;
48241;SDS011;34041;51.812;4.622;2023-07-31T13:36:02;3.85;;;2.05;;
48241;SDS011;34041;51.812;4.622;2023-07-31T13:39:02;2.72;;;1.90;;
48241;SDS011;34041;51.812;4.622;2023-07-31T13:42:03;4.13;;;2.13;;
48241;SDS011;34041;51.812;4.622;2023-07-31T13:45:03;3.17;;;1.75;;
48241;SDS011;34041;51.812;4.622;2023-07-31T13:48:04;2.55;;;1.85;;
48241;SDS011;34041;51.812;4.622;2023-07-31T13:51:04;3.55;;;2.08;;
48241;SDS011;34041;51.812;4.622;2023-07-31T13:54:04;2.57;;;1.63;;
48241;SDS011;34041;51.812;4.622;2023-07-31T13:57:06;2.35;;;1.70;;
48241;SDS011;34041;51.812;4.622;2023-07-31T14:00:06;3.03;;;1.90;;
48241;SDS011;34041;51.812;4.622;2023-07-31T14:03:08;3.78;;;1.92;;
48241;SDS011;34041;51.812;4.622;2023-07-31T14:06:08;3.10;;;1.87;;
48241;SDS011;34041;51.812;4.622;2023-07-31T14:09:08;3.43;;;2.17;;
48241;SDS011;34041;51.812;4.622;2023-07-31T14:12:08;3.47;;;2.10;;
48241;SDS011;34041;51.812;4.622;2023-07-31T14:15:09;4.33;;;2.00;;
48241;SDS011;34041;51.812;4.622;2023-07-31T14:18:09;3.90;;;2.28;;
48241;SDS011;34041;51.812;4.622;2023-07-31T14:21:10;4.10;;;2.60;;
48241;SDS011;34041;51.812;4.622;2023-07-31T14:24:10;3.40;;;2.20;;
48241;SDS011;34041;51.812;4.622;2023-07-31T14:27:10;2.85;;;1.75;;
48241;SDS011;34041;51.812;4.622;2023-07-31T14:30:10;2.40;;;1.50;;
48241;SDS011;34041;51.812;4.622;2023-07-31T14:33:11;3.47;;;2.40;;
48241;SDS011;34041;51.812;4.622;2023-07-31T14:36:11;4.83;;;2.10;;
48241;SDS011;34041;51.812;4.622;2023-07-31T14:39:11;3.72;;;2.38;;
48241;SDS011;34041;51.812;4.622;2023-07-31T14:42:11;3.57;;;2.07;;
48241;SDS011;34041;51.812;4.622;2023-07-31T14:45:12;3.22;;;2.47;;
48241;SDS011;34041;51.812;4.622;2023-07-31T14:48:12;3.45;;;2.47;;
48241;SDS011;34041;51.812;4.622;2023-07-31T14:51:13;3.67;;;2.30;;
48241;SDS011;34041;51.812;4.622;2023-07-31T14:54:14;5.03;;;2.60;;
48241;SDS011;34041;51.812;4.622;2023-07-31T14:57:14;3.37;;;2.23;;
48241;SDS011;34041;51.812;4.622;2023-07-31T15:00:14;3.27;;;2.20;;
48241;SDS011;34041;51.812;4.622;2023-07-31T15:03:15;3.65;;;2.35;;
48241;SDS011;34041;51.812;4.622;2023-07-31T15:06:15;2.95;;;1.85;;
48241;SDS011;34041;51.812;4.622;2023-07-31T15:09:15;3.93;;;2.20;;
48241;SDS011;34041;51.812;4.622;2023-07-31T15:12:15;2.90;;;2.07;;
48241;SDS011;34041;51.812;4.622;2023-07-31T15:15:16;3.30;;;2.43;;
48241;SDS011;34041;51.812;4.622;2023-07-31T15:18:16;4.22;;;2.20;;
48241;SDS011;34041;51.812;4.622;2023-07-31T15:21:17;3.10;;;1.77;;
48241;SDS011;34041;51.812;4.622;2023-07-31T15:24:17;2.13;;;1.60;;
48241;SDS011;34041;51.812;4.622;2023-07-31T15:27:17;2.90;;;1.83;;
48241;SDS011;34041;51.812;4.622;2023-07-31T15:30:17;2.03;;;1.37;;
48241;SDS011;34041;51.812;4.622;2023-07-31T15:33:18;3.00;;;1.53;;
48241;SDS011;34041;51.812;4.622;2023-07-31T15:36:18;2.30;;;1.13;;
48241;SDS011;34041;51.812;4.622;2023-07-31T15:39:18;4.35;;;1.42;;
48241;SDS011;34041;51.812;4.622;2023-07-31T15:42:19;2.90;;;1.30;;
48241;SDS011;34041;51.812;4.622;2023-07-31T15:45:19;2.20;;;1.48;;
48241;SDS011;34041;51.812;4.622;2023-07-31T15:48:19;3.40;;;1.27;;
48241;SDS011;34041;51.812;4.622;2023-07-31T15:51:19;1.70;;;1.10;;
48241;SDS011;34041;51.812;4.622;2023-07-31T15:54:20;2.58;;;1.05;;
48241;SDS011;34041;51.812;4.622;2023-07-31T15:57:20;3.70;;;0.83;;
48241;SDS011;34041;51.812;4.622;2023-07-31T16:00:20;2.17;;;1.03;;
48241;SDS011;34041;51.812;4.622;2023-07-31T16:03:20;1.42;;;0.80;;
48241;SDS011;34041;51.812;4.622;2023-07-31T16:06:21;2.15;;;1.02;;
48241;SDS011;34041;51.812;4.622;2023-07-31T16:09:21;2.30;;;1.00;;
48241;SDS011;34041;51.812;4.622;2023-07-31T16:12:22;1.90;;;1.00;;
48241;SDS011;34041;51.812;4.622;2023-07-31T16:15:22;2.10;;;1.05;;
48241;SDS011;34041;51.812;4.622;2023-07-31T16:18:22;1.80;;;0.90;;
48241;SDS011;34041;51.812;4.622;2023-07-31T16:21:22;1.53;;;0.90;;
48241;SDS011;34041;51.812;4.622;2023-07-31T16:24:23;2.73;;;1.13;;
48241;SDS011;34041;51.812;4.622;2023-07-31T16:27:23;1.03;;;0.70;;
48241;SDS011;34041;51.812;4.622;2023-07-31T16:30:24;1.77;;;0.80;;
48241;SDS011;34041;51.812;4.622;2023-07-31T16:33:25;4.15;;;0.88;;
48241;SDS011;34041;51.812;4.622;2023-07-31T16:36:25;1.23;;;0.80;;
48241;SDS011;34041;51.812;4.622;2023-07-31T16:39:25;1.83;;;0.73;;
48241;SDS011;34041;51.812;4.622;2023-07-31T16:42:25;1.85;;;1.02;;
48241;SDS011;34041;51.812;4.622;2023-07-31T16:45:26;1.45;;;0.93;;
48241;SDS011;34041;51.812;4.622;2023-07-31T16:48:26;1.47;;;0.90;;
48241;SDS011;34041;51.812;4.622;2023-07-31T16:51:27;1.95;;;1.30;;
48241;SDS011;34041;51.812;4.622;2023-07-31T16:54:27;1.07;;;0.77;;
48241;SDS011;34041;51.812;4.622;2023-07-31T16:57:27;1.38;;;0.70;;
48241;SDS011;34041;51.812;4.622;2023-07-31T17:00:28;2.53;;;0.80;;
48241;SDS011;34041;51.812;4.622;2023-07-31T17:03:28;2.60;;;1.00;;
48241;SDS011;34041;51.812;4.622;2023-07-31T17:06:28;2.13;;;0.97;;
48241;SDS011;34041;51.812;4.622;2023-07-31T17:09:28;2.53;;;0.90;;
48241;SDS011;34041;51.812;4.622;2023-07-31T17:12:29;2.60;;;0.85;;
48241;SDS011;34041;51.812;4.622;2023-07-31T17:15:29;1.73;;;0.90;;
48241;SDS011;34041;51.812;4.622;2023-07-31T17:18:29;2.90;;;0.90;;
48241;SDS011;34041;51.812;4.622;2023-07-31T17:21:30;1.63;;;0.82;;
48241;SDS011;34041;51.812;4.622;2023-07-31T17:24:30;2.10;;;0.70;;
48241;SDS011;34041;51.812;4.622;2023-07-31T17:27:30;1.40;;;0.90;;
48241;SDS011;34041;51.812;4.622;2023-07-31T17:30:30;3.63;;;0.80;;
48241;SDS011;34041;51.812;4.622;2023-07-31T17:33:31;4.87;;;0.73;;
48241;SDS011;34041;51.812;4.622;2023-07-31T17:36:32;4.22;;;1.05;;
48241;SDS011;34041;51.812;4.622;2023-07-31T17:39:32;6.25;;;1.20;;
48241;SDS011;34041;51.812;4.622;2023-07-31T17:42:33;3.33;;;1.00;;
48241;SDS011;34041;51.812;4.622;2023-07-31T17:45:33;1.87;;;0.67;;
48241;SDS011;34041;51.812;4.622;2023-07-31T17:48:34;3.17;;;0.80;;
48241;SDS011;34041;51.812;4.622;2023-07-31T17:51:34;2.20;;;1.00;;
48241;SDS011;34041;51.812;4.622;2023-07-31T17:54:34;2.63;;;0.82;;
48241;SDS011;34041;51.812;4.622;2023-07-31T17:57:34;2.17;;;0.77;;
48241;SDS011;34041;51.812;4.622;2023-07-31T18:00:35;1.52;;;0.90;;
48241;SDS011;34041;51.812;4.622;2023-07-31T18:03:36;2.47;;;1.05;;
48241;SDS011;34041;51.812;4.622;2023-07-31T18:06:36;7.30;;;1.55;;
48241;SDS011;34041;51.812;4.622;2023-07-31T18:09:40;2.05;;;0.80;;
48241;SDS011;34041;51.812;4.622;2023-07-31T18:12:41;2.47;;;0.80;;
48241;SDS011;34041;51.812;4.622;2023-07-31T18:15:44;1.95;;;0.70;;